sensor_id;sensor_type;location;lat;lon;timestamp;pressure;altitude;pressure_sealevel;temperature;humidity
72285;BME280;60220;53.552;10.092;2023-01-05T00:02:01;100415.16;;;9.64;84.09
72285;BME280;60220;53.552;10.092;2023-01-05T00:04:27;100408.81;;;9.80;82.89
72285;BME280;60220;53.552;10.092;2023-01-05T00:06:54;100413.41;;;9.64;82.82
72285;BME280;60220;53.552;10.092;2023-01-05T00:09:21;100411.66;;;9.63;83.05
72285;BME280;60220;53.552;10.092;2023-01-05T00:11:50;100408.09;;;9.67;83.33
72285;BME280;60220;53.552;10.092;2023-01-05T00:14:35;100417.91;;;9.56;82.92
72285;BME280;60220;53.552;10.092;2023-01-05T00:17:21;100419.38;;;9.74;83.28
72285;BME280;60220;53.552;10.092;2023-01-05T00:20:09;100416.25;;;9.49;83.22
72285;BME280;60220;53.552;10.092;2023-01-05T00:22:58;100421.41;;;9.55;82.71
72285;BME280;60220;53.552;10.092;2023-01-05T00:25:26;100415.31;;;9.51;83.15
72285;BME280;60220;53.552;10.092;2023-01-05T00:27:54;100424.88;;;9.56;82.64
72285;BME280;60220;53.552;10.092;2023-01-05T00:30:26;100426.44;;;9.69;82.76
72285;BME280;60220;53.552;10.092;2023-01-05T00:32:53;100422.94;;;9.71;82.87
72285;BME280;60220;53.552;10.092;2023-01-05T00:35:20;100423.69;;;9.76;82.65
72285;BME280;60220;53.552;10.092;2023-01-05T00:37:47;100427.38;;;9.63;82.69
72285;BME280;60220;53.552;10.092;2023-01-05T00:40:16;100426.38;;;9.73;82.58
72285;BME280;60220;53.552;10.092;2023-01-05T00:42:44;100437.25;;;9.46;83.46
72285;BME280;60220;53.552;10.092;2023-01-05T00:45:12;100434.44;;;9.58;83.36
72285;BME280;60220;53.552;10.092;2023-01-05T00:47:41;100436.25;;;9.53;82.30
72285;BME280;60220;53.552;10.092;2023-01-05T00:50:10;100433.66;;;9.53;83.05
72285;BME280;60220;53.552;10.092;2023-01-05T00:52:38;100436.13;;;9.65;81.90
72285;BME280;60220;53.552;10.092;2023-01-05T00:55:07;100437.75;;;9.72;81.12
72285;BME280;60220;53.552;10.092;2023-01-05T00:57:34;100433.50;;;9.65;80.89
72285;BME280;60220;53.552;10.092;2023-01-05T01:00:05;100434.06;;;9.85;81.20
72285;BME280;60220;53.552;10.092;2023-01-05T01:02:32;100444.50;;;9.88;79.80
72285;BME280;60220;53.552;10.092;2023-01-05T01:05:03;100430.81;;;9.67;81.11
72285;BME280;60220;53.552;10.092;2023-01-05T01:07:30;100446.59;;;9.65;81.43
72285;BME280;60220;53.552;10.092;2023-01-05T01:09:57;100456.28;;;9.59;82.31
72285;BME280;60220;53.552;10.092;2023-01-05T01:12:26;100456.94;;;9.73;82.45
72285;BME280;60220;53.552;10.092;2023-01-05T01:14:52;100470.38;;;9.50;82.05
72285;BME280;60220;53.552;10.092;2023-01-05T01:17:19;100457.31;;;9.47;81.61
72285;BME280;60220;53.552;10.092;2023-01-05T01:19:46;100466.50;;;9.77;80.62
72285;BME280;60220;53.552;10.092;2023-01-05T01:22:16;100461.31;;;9.72;80.62
72285;BME280;60220;53.552;10.092;2023-01-05T01:24:43;100468.75;;;10.03;79.28
72285;BME280;60220;53.552;10.092;2023-01-05T01:27:10;100461.25;;;9.78;79.89
72285;BME280;60220;53.552;10.092;2023-01-05T01:29:36;100480.31;;;9.88;79.80
72285;BME280;60220;53.552;10.092;2023-01-05T01:32:05;100487.38;;;9.83;80.35
72285;BME280;60220;53.552;10.092;2023-01-05T01:34:34;100487.09;;;9.40;81.88
72285;BME280;60220;53.552;10.092;2023-01-05T01:37:01;100484.25;;;9.58;80.58
72285;BME280;60220;53.552;10.092;2023-01-05T01:39:29;100478.94;;;9.63;80.38
72285;BME280;60220;53.552;10.092;2023-01-05T01:41:56;100478.25;;;9.50;79.55
72285;BME280;60220;53.552;10.092;2023-01-05T01:44:48;100492.09;;;9.58;79.43
72285;BME280;60220;53.552;10.092;2023-01-05T01:47:20;100493.81;;;9.61;78.52
72285;BME280;60220;53.552;10.092;2023-01-05T01:49:48;100489.47;;;9.61;78.47
72285;BME280;60220;53.552;10.092;2023-01-05T01:52:16;100496.03;;;9.91;77.49
72285;BME280;60220;53.552;10.092;2023-01-05T01:54:46;100496.97;;;9.85;77.86
72285;BME280;60220;53.552;10.092;2023-01-05T01:57:14;100498.06;;;9.69;78.18
72285;BME280;60220;53.552;10.092;2023-01-05T01:59:41;100497.22;;;9.67;78.06
72285;BME280;60220;53.552;10.092;2023-01-05T02:02:08;100497.66;;;9.97;77.08
72285;BME280;60220;53.552;10.092;2023-01-05T02:04:36;100499.31;;;10.05;76.73
72285;BME280;60220;53.552;10.092;2023-01-05T02:07:03;100498.81;;;9.77;77.31
72285;BME280;60220;53.552;10.092;2023-01-05T02:09:30;100504.19;;;9.68;77.43
72285;BME280;60220;53.552;10.092;2023-01-05T02:12:05;100506.69;;;9.79;77.44
72285;BME280;60220;53.552;10.092;2023-01-05T02:14:39;100506.81;;;9.67;77.46
72285;BME280;60220;53.552;10.092;2023-01-05T02:17:17;100494.44;;;9.78;77.31
72285;BME280;60220;53.552;10.092;2023-01-05T02:20:23;100501.56;;;9.70;76.78
72285;BME280;60220;53.552;10.092;2023-01-05T02:25:53;100503.47;;;9.57;76.49
72285;BME280;60220;53.552;10.092;2023-01-05T02:28:45;100490.66;;;9.36;75.95
72285;BME280;60220;53.552;10.092;2023-01-05T02:31:20;100484.63;;;9.28;76.25
72285;BME280;60220;53.552;10.092;2023-01-05T02:34:02;100498.94;;;9.71;75.74
72285;BME280;60220;53.552;10.092;2023-01-05T02:36:35;100501.44;;;9.77;75.18
72285;BME280;60220;53.552;10.092;2023-01-05T02:39:11;100488.09;;;9.30;76.13
72285;BME280;60220;53.552;10.092;2023-01-05T02:41:47;100494.69;;;9.61;75.32
72285;BME280;60220;53.552;10.092;2023-01-05T02:44:15;100494.91;;;9.44;75.55
72285;BME280;60220;53.552;10.092;2023-01-05T02:46:44;100507.25;;;9.36;75.48
72285;BME280;60220;53.552;10.092;2023-01-05T02:49:11;100517.72;;;9.36;75.49
72285;BME280;60220;53.552;10.092;2023-01-05T02:51:41;100506.25;;;9.45;74.47
72285;BME280;60220;53.552;10.092;2023-01-05T02:54:13;100507.53;;;9.09;74.64
72285;BME280;60220;53.552;10.092;2023-01-05T02:56:46;100508.44;;;9.06;74.50
72285;BME280;60220;53.552;10.092;2023-01-05T02:59:19;100508.88;;;9.45;73.86
72285;BME280;60220;53.552;10.092;2023-01-05T03:04:24;100523.84;;;9.34;72.40
72285;BME280;60220;53.552;10.092;2023-01-05T03:06:55;100534.44;;;9.22;73.33
72285;BME280;60220;53.552;10.092;2023-01-05T03:09:28;100526.47;;;9.34;73.08
72285;BME280;60220;53.552;10.092;2023-01-05T03:12:07;100529.94;;;9.34;72.45
72285;BME280;60220;53.552;10.092;2023-01-05T03:14:56;100536.78;;;9.47;72.11
72285;BME280;60220;53.552;10.092;2023-01-05T03:17:27;100533.28;;;9.47;72.91
72285;BME280;60220;53.552;10.092;2023-01-05T03:19:57;100534.00;;;9.60;71.94
72285;BME280;60220;53.552;10.092;2023-01-05T03:22:27;100539.63;;;9.28;73.08
72285;BME280;60220;53.552;10.092;2023-01-05T03:25:17;100531.81;;;9.22;73.82
72285;BME280;60220;53.552;10.092;2023-01-05T03:28:03;100547.53;;;9.22;73.46
72285;BME280;60220;53.552;10.092;2023-01-05T03:30:56;100548.16;;;9.45;73.01
72285;BME280;60220;53.552;10.092;2023-01-05T03:33:44;100539.44;;;9.41;73.12
72285;BME280;60220;53.552;10.092;2023-01-05T03:36:31;100549.22;;;9.27;73.48
72285;BME280;60220;53.552;10.092;2023-01-05T03:39:04;100549.34;;;9.17;73.08
72285;BME280;60220;53.552;10.092;2023-01-05T03:41:35;100551.03;;;9.22;73.44
72285;BME280;60220;53.552;10.092;2023-01-05T03:44:04;100559.47;;;9.47;73.72
72285;BME280;60220;53.552;10.092;2023-01-05T03:46:30;100551.25;;;9.01;74.41
72285;BME280;60220;53.552;10.092;2023-01-05T03:48:57;100550.59;;;8.79;74.65
72285;BME280;60220;53.552;10.092;2023-01-05T03:51:24;100558.25;;;8.99;74.80
72285;BME280;60220;53.552;10.092;2023-01-05T03:53:52;100564.00;;;9.33;74.37
72285;BME280;60220;53.552;10.092;2023-01-05T03:56:18;100561.88;;;8.84;75.19
72285;BME280;60220;53.552;10.092;2023-01-05T03:58:45;100559.31;;;8.81;75.42
72285;BME280;60220;53.552;10.092;2023-01-05T04:01:14;100574.00;;;8.94;74.92
72285;BME280;60220;53.552;10.092;2023-01-05T04:03:41;100568.53;;;9.17;73.81
72285;BME280;60220;53.552;10.092;2023-01-05T04:06:08;100574.97;;;8.83;74.44
72285;BME280;60220;53.552;10.092;2023-01-05T04:08:34;100587.00;;;9.03;73.93
72285;BME280;60220;53.552;10.092;2023-01-05T04:11:11;100591.50;;;8.88;74.34
72285;BME280;60220;53.552;10.092;2023-01-05T04:13:41;100594.28;;;8.68;74.50
72285;BME280;60220;53.552;10.092;2023-01-05T04:16:10;100587.31;;;8.67;74.65
72285;BME280;60220;53.552;10.092;2023-01-05T04:18:37;100580.28;;;8.72;74.45
72285;BME280;60220;53.552;10.092;2023-01-05T04:21:04;100591.78;;;8.53;74.88
72285;BME280;60220;53.552;10.092;2023-01-05T04:23:34;100587.59;;;8.31;75.43
72285;BME280;60220;53.552;10.092;2023-01-05T04:26:03;100591.75;;;8.60;75.27
72285;BME280;60220;53.552;10.092;2023-01-05T04:28:31;100594.28;;;8.71;74.22
72285;BME280;60220;53.552;10.092;2023-01-05T04:30:58;100598.69;;;8.63;74.13
72285;BME280;60220;53.552;10.092;2023-01-05T04:33:25;100609.97;;;8.71;74.95
72285;BME280;60220;53.552;10.092;2023-01-05T04:35:52;100613.63;;;8.49;75.25
72285;BME280;60220;53.552;10.092;2023-01-05T04:38:18;100610.03;;;8.67;74.58
72285;BME280;60220;53.552;10.092;2023-01-05T04:40:46;100608.41;;;8.46;74.07
72285;BME280;60220;53.552;10.092;2023-01-05T04:43:13;100618.06;;;8.35;75.23
72285;BME280;60220;53.552;10.092;2023-01-05T04:45:45;100624.91;;;8.52;75.21
72285;BME280;60220;53.552;10.092;2023-01-05T04:48:14;100621.56;;;8.35;74.79
72285;BME280;60220;53.552;10.092;2023-01-05T04:50:40;100620.72;;;8.22;75.28
72285;BME280;60220;53.552;10.092;2023-01-05T04:53:07;100622.47;;;8.27;76.18
72285;BME280;60220;53.552;10.092;2023-01-05T04:55:34;100622.41;;;8.42;75.26
72285;BME280;60220;53.552;10.092;2023-01-05T04:58:03;100632.75;;;8.55;74.74
72285;BME280;60220;53.552;10.092;2023-01-05T05:00:30;100632.00;;;8.40;75.04
72285;BME280;60220;53.552;10.092;2023-01-05T05:02:58;100642.38;;;8.47;74.78
72285;BME280;60220;53.552;10.092;2023-01-05T05:05:25;100649.41;;;8.45;75.31
72285;BME280;60220;53.552;10.092;2023-01-05T05:07:51;100644.22;;;8.36;75.96
72285;BME280;60220;53.552;10.092;2023-01-05T05:10:18;100639.00;;;8.33;75.29
72285;BME280;60220;53.552;10.092;2023-01-05T05:12:45;100641.59;;;8.35;76.94
72285;BME280;60220;53.552;10.092;2023-01-05T05:15:12;100645.84;;;8.55;75.79
72285;BME280;60220;53.552;10.092;2023-01-05T05:17:38;100645.13;;;8.31;76.91
72285;BME280;60220;53.552;10.092;2023-01-05T05:20:08;100654.66;;;8.38;77.10
72285;BME280;60220;53.552;10.092;2023-01-05T05:22:35;100646.88;;;8.19;77.24
72285;BME280;60220;53.552;10.092;2023-01-05T05:25:01;100662.53;;;8.29;76.71
72285;BME280;60220;53.552;10.092;2023-01-05T05:27:28;100661.63;;;8.42;76.42
72285;BME280;60220;53.552;10.092;2023-01-05T05:29:57;100672.09;;;8.37;75.96
72285;BME280;60220;53.552;10.092;2023-01-05T05:32:24;100660.78;;;8.37;76.10
72285;BME280;60220;53.552;10.092;2023-01-05T05:34:51;100670.91;;;8.91;75.34
72285;BME280;60220;53.552;10.092;2023-01-05T05:37:19;100685.13;;;8.48;76.00
72285;BME280;60220;53.552;10.092;2023-01-05T05:39:45;100677.31;;;8.42;76.09
72285;BME280;60220;53.552;10.092;2023-01-05T05:42:12;100686.97;;;8.21;76.61
72285;BME280;60220;53.552;10.092;2023-01-05T05:44:39;100679.13;;;8.26;76.62
72285;BME280;60220;53.552;10.092;2023-01-05T05:47:05;100682.56;;;8.37;76.33
72285;BME280;60220;53.552;10.092;2023-01-05T05:49:34;100688.59;;;8.51;75.84
72285;BME280;60220;53.552;10.092;2023-01-05T05:52:03;100705.28;;;8.21;76.48
72285;BME280;60220;53.552;10.092;2023-01-05T05:54:31;100704.41;;;8.19;76.23
72285;BME280;60220;53.552;10.092;2023-01-05T05:56:58;100706.09;;;8.42;76.23
72285;BME280;60220;53.552;10.092;2023-01-05T05:59:24;100700.91;;;8.31;75.80
72285;BME280;60220;53.552;10.092;2023-01-05T06:01:51;100719.22;;;8.31;76.55
72285;BME280;60220;53.552;10.092;2023-01-05T06:04:17;100718.31;;;8.29;76.79
72285;BME280;60220;53.552;10.092;2023-01-05T06:06:44;100708.72;;;8.33;76.05
72285;BME280;60220;53.552;10.092;2023-01-05T06:09:11;100717.44;;;8.29;76.82
72285;BME280;60220;53.552;10.092;2023-01-05T06:11:42;100725.22;;;8.50;76.37
72285;BME280;60220;53.552;10.092;2023-01-05T06:14:11;100707.91;;;8.21;76.25
72285;BME280;60220;53.552;10.092;2023-01-05T06:16:37;100727.06;;;8.20;77.19
72285;BME280;60220;53.552;10.092;2023-01-05T06:19:04;100743.53;;;8.51;76.22
72285;BME280;60220;53.552;10.092;2023-01-05T06:21:32;100730.50;;;8.41;76.26
72285;BME280;60220;53.552;10.092;2023-01-05T06:23:58;100741.78;;;8.49;76.27
72285;BME280;60220;53.552;10.092;2023-01-05T06:26:27;100741.00;;;8.24;76.73
72285;BME280;60220;53.552;10.092;2023-01-05T06:28:55;100734.00;;;8.28;75.98
72285;BME280;60220;53.552;10.092;2023-01-05T06:31:22;100756.72;;;8.07;76.41
72285;BME280;60220;53.552;10.092;2023-01-05T06:33:48;100767.19;;;8.16;76.52
72285;BME280;60220;53.552;10.092;2023-01-05T06:36:15;100753.16;;;8.37;75.40
72285;BME280;60220;53.552;10.092;2023-01-05T06:38:42;100768.03;;;8.15;76.68
72285;BME280;60220;53.552;10.092;2023-01-05T06:41:09;100765.41;;;8.23;77.03
72285;BME280;60220;53.552;10.092;2023-01-05T06:43:35;100785.44;;;8.33;76.55
72285;BME280;60220;53.552;10.092;2023-01-05T06:46:03;100779.34;;;8.42;76.00
72285;BME280;60220;53.552;10.092;2023-01-05T06:48:30;100779.28;;;8.49;75.37
72285;BME280;60220;53.552;10.092;2023-01-05T06:50:57;100779.38;;;8.30;75.56
72285;BME280;60220;53.552;10.092;2023-01-05T06:53:23;100784.59;;;8.14;76.33
72285;BME280;60220;53.552;10.092;2023-01-05T06:55:50;100786.28;;;8.43;74.89
72285;BME280;60220;53.552;10.092;2023-01-05T06:58:16;100797.66;;;8.36;74.53
72285;BME280;60220;53.552;10.092;2023-01-05T07:00:43;100793.28;;;8.38;75.47
72285;BME280;60220;53.552;10.092;2023-01-05T07:03:12;100818.56;;;8.22;75.78
72285;BME280;60220;53.552;10.092;2023-01-05T07:05:39;100816.78;;;8.56;75.64
72285;BME280;60220;53.552;10.092;2023-01-05T07:08:06;100821.19;;;8.40;74.67
72285;BME280;60220;53.552;10.092;2023-01-05T07:10:33;100805.50;;;8.36;74.66
72285;BME280;60220;53.552;10.092;2023-01-05T07:13:00;100808.97;;;8.22;75.15
72285;BME280;60220;53.552;10.092;2023-01-05T07:15:26;100806.38;;;8.30;74.83
72285;BME280;60220;53.552;10.092;2023-01-05T07:17:53;100809.00;;;8.21;73.37
72285;BME280;60220;53.552;10.092;2023-01-05T07:20:23;100813.34;;;8.36;74.18
72285;BME280;60220;53.552;10.092;2023-01-05T07:22:50;100816.84;;;8.36;74.01
72285;BME280;60220;53.552;10.092;2023-01-05T07:25:16;100829.00;;;8.51;73.86
72285;BME280;60220;53.552;10.092;2023-01-05T07:27:49;100825.47;;;8.61;73.39
72285;BME280;60220;53.552;10.092;2023-01-05T07:30:15;100835.94;;;8.52;71.77
72285;BME280;60220;53.552;10.092;2023-01-05T07:32:42;100843.00;;;8.36;74.00
72285;BME280;60220;53.552;10.092;2023-01-05T07:35:08;100839.50;;;8.33;74.29
72285;BME280;60220;53.552;10.092;2023-01-05T07:37:36;100859.56;;;8.34;74.12
72285;BME280;60220;53.552;10.092;2023-01-05T07:40:04;100852.56;;;8.33;74.36
72285;BME280;60220;53.552;10.092;2023-01-05T07:42:31;100870.84;;;8.49;73.54
72285;BME280;60220;53.552;10.092;2023-01-05T07:44:58;100864.78;;;8.40;73.73
72285;BME280;60220;53.552;10.092;2023-01-05T07:47:28;100865.63;;;8.43;74.32
72285;BME280;60220;53.552;10.092;2023-01-05T07:49:58;100869.16;;;8.30;75.47
72285;BME280;60220;53.552;10.092;2023-01-05T07:52:24;100866.47;;;8.56;74.23
72285;BME280;60220;53.552;10.092;2023-01-05T07:54:54;100878.75;;;8.31;75.19
72285;BME280;60220;53.552;10.092;2023-01-05T07:57:24;100870.00;;;8.23;75.10
72285;BME280;60220;53.552;10.092;2023-01-05T07:59:51;100885.69;;;8.49;74.09
72285;BME280;60220;53.552;10.092;2023-01-05T08:02:18;100880.44;;;8.61;75.01
72285;BME280;60220;53.552;10.092;2023-01-05T08:04:45;100889.97;;;8.68;74.87
72285;BME280;60220;53.552;10.092;2023-01-05T08:07:12;100898.78;;;8.40;75.44
72285;BME280;60220;53.552;10.092;2023-01-05T08:09:40;100896.16;;;8.34;74.72
72285;BME280;60220;53.552;10.092;2023-01-05T08:12:26;100910.13;;;8.36;75.35
72285;BME280;60220;53.552;10.092;2023-01-05T08:14:53;100916.19;;;8.48;74.70
72285;BME280;60220;53.552;10.092;2023-01-05T08:17:21;100922.31;;;8.34;75.14
72285;BME280;60220;53.552;10.092;2023-01-05T08:19:49;100938.88;;;8.45;74.44
72285;BME280;60220;53.552;10.092;2023-01-05T08:22:15;100938.88;;;8.43;75.41
72285;BME280;60220;53.552;10.092;2023-01-05T08:24:45;100946.75;;;8.30;75.43
72285;BME280;60220;53.552;10.092;2023-01-05T08:27:14;100948.47;;;8.32;75.79
72285;BME280;60220;53.552;10.092;2023-01-05T08:29:42;100956.31;;;8.46;75.21
72285;BME280;60220;53.552;10.092;2023-01-05T08:32:08;100965.91;;;8.56;74.96
72285;BME280;60220;53.552;10.092;2023-01-05T08:34:35;100977.22;;;8.66;74.96
72285;BME280;60220;53.552;10.092;2023-01-05T08:37:04;100978.09;;;8.69;76.53
72285;BME280;60220;53.552;10.092;2023-01-05T08:39:31;100986.84;;;8.56;76.95
72285;BME280;60220;53.552;10.092;2023-01-05T08:42:00;100999.00;;;8.23;79.68
72285;BME280;60220;53.552;10.092;2023-01-05T08:44:26;100996.34;;;7.98;83.40
72285;BME280;60220;53.552;10.092;2023-01-05T08:46:54;101025.97;;;7.85;85.31
72285;BME280;60220;53.552;10.092;2023-01-05T08:49:22;101024.25;;;8.00;85.21
72285;BME280;60220;53.552;10.092;2023-01-05T08:51:48;101026.81;;;7.82;86.50
72285;BME280;60220;53.552;10.092;2023-01-05T08:54:15;101038.97;;;7.65;86.40
72285;BME280;60220;53.552;10.092;2023-01-05T08:56:44;101046.94;;;8.06;86.00
72285;BME280;60220;53.552;10.092;2023-01-05T08:59:12;101047.78;;;8.00;86.38
72285;BME280;60220;53.552;10.092;2023-01-05T09:01:39;101049.56;;;8.19;85.95
72285;BME280;60220;53.552;10.092;2023-01-05T09:04:07;101059.06;;;7.84;87.23
72285;BME280;60220;53.552;10.092;2023-01-05T09:06:34;101059.94;;;7.86;87.34
72285;BME280;60220;53.552;10.092;2023-01-05T09:09:01;101057.34;;;7.92;87.21
72285;BME280;60220;53.552;10.092;2023-01-05T09:11:27;101073.00;;;7.88;87.34
72285;BME280;60220;53.552;10.092;2023-01-05T09:13:55;101071.25;;;7.81;86.85
72285;BME280;60220;53.552;10.092;2023-01-05T09:16:25;101082.53;;;7.66;87.77
72285;BME280;60220;53.552;10.092;2023-01-05T09:18:56;101092.16;;;7.81;87.06
72285;BME280;60220;53.552;10.092;2023-01-05T09:21:24;101097.38;;;7.79;86.62
72285;BME280;60220;53.552;10.092;2023-01-05T09:23:53;101099.22;;;8.01;85.66
72285;BME280;60220;53.552;10.092;2023-01-05T09:26:19;101113.81;;;7.55;88.18
72285;BME280;60220;53.552;10.092;2023-01-05T09:28:46;101116.44;;;7.60;87.87
72285;BME280;60220;53.552;10.092;2023-01-05T09:31:14;101124.50;;;8.13;85.17
72285;BME280;60220;53.552;10.092;2023-01-05T09:33:42;101129.69;;;8.02;87.10
72285;BME280;60220;53.552;10.092;2023-01-05T09:36:12;101132.31;;;7.99;85.22
72285;BME280;60220;53.552;10.092;2023-01-05T09:38:41;101135.03;;;8.33;84.63
72285;BME280;60220;53.552;10.092;2023-01-05T09:41:13;101143.78;;;8.41;83.76
72285;BME280;60220;53.552;10.092;2023-01-05T09:43:41;101149.88;;;8.35;83.52
72285;BME280;60220;53.552;10.092;2023-01-05T09:46:15;101148.03;;;8.10;83.16
72285;BME280;60220;53.552;10.092;2023-01-05T09:48:46;101154.09;;;8.04;84.46
72285;BME280;60220;53.552;10.092;2023-01-05T09:51:15;101156.84;;;8.42;82.69
72285;BME280;60220;53.552;10.092;2023-01-05T09:53:43;101159.41;;;8.29;82.42
72285;BME280;60220;53.552;10.092;2023-01-05T09:56:20;101159.53;;;8.83;81.93
72285;BME280;60220;53.552;10.092;2023-01-05T09:58:51;101172.44;;;8.13;82.89
72285;BME280;60220;53.552;10.092;2023-01-05T10:01:20;101180.31;;;8.19;84.04
72285;BME280;60220;53.552;10.092;2023-01-05T10:03:54;101184.69;;;8.20;82.75
72285;BME280;60220;53.552;10.092;2023-01-05T10:06:27;101183.81;;;8.25;82.95
72285;BME280;60220;53.552;10.092;2023-01-05T10:08:58;101190.75;;;8.13;82.42
72285;BME280;60220;53.552;10.092;2023-01-05T10:11:30;101197.72;;;8.14;82.07
72285;BME280;60220;53.552;10.092;2023-01-05T10:14:19;101192.53;;;8.20;83.63
72285;BME280;60220;53.552;10.092;2023-01-05T10:16:47;101196.09;;;8.47;82.45
72285;BME280;60220;53.552;10.092;2023-01-05T10:19:16;101194.44;;;8.61;81.20
72285;BME280;60220;53.552;10.092;2023-01-05T10:21:53;101201.41;;;8.74;79.21
72285;BME280;60220;53.552;10.092;2023-01-05T10:24:30;101211.84;;;8.59;80.18
72285;BME280;60220;53.552;10.092;2023-01-05T10:27:06;101208.44;;;9.04;79.25
72285;BME280;60220;53.552;10.092;2023-01-05T10:29:38;101211.91;;;8.92;78.72
72285;BME280;60220;53.552;10.092;2023-01-05T10:32:19;101225.88;;;8.85;79.25
72285;BME280;60220;53.552;10.092;2023-01-05T10:34:54;101221.44;;;8.55;80.76
72285;BME280;60220;53.552;10.092;2023-01-05T10:37:42;101223.25;;;8.97;79.91
72285;BME280;60220;53.552;10.092;2023-01-05T10:40:23;101225.00;;;9.17;77.61
72285;BME280;60220;53.552;10.092;2023-01-05T10:43:02;101229.34;;;8.75;79.08
72285;BME280;60220;53.552;10.092;2023-01-05T10:45:34;101229.38;;;9.05;78.14
72285;BME280;60220;53.552;10.092;2023-01-05T10:48:03;101236.38;;;9.28;77.43
72285;BME280;60220;53.552;10.092;2023-01-05T10:50:37;101234.59;;;8.93;78.40
72285;BME280;60220;53.552;10.092;2023-01-05T10:53:09;101238.97;;;9.13;77.67
72285;BME280;60220;53.552;10.092;2023-01-05T10:55:44;101244.13;;;8.58;77.70
72285;BME280;60220;53.552;10.092;2023-01-05T10:58:21;101247.69;;;8.84;78.05
72285;BME280;60220;53.552;10.092;2023-01-05T11:00:48;101252.09;;;9.10;76.98
72285;BME280;60220;53.552;10.092;2023-01-05T11:03:16;101241.59;;;8.97;77.24
72285;BME280;60220;53.552;10.092;2023-01-05T11:05:45;101252.09;;;9.19;77.52
72285;BME280;60220;53.552;10.092;2023-01-05T11:08:14;101255.59;;;9.36;77.23
72285;BME280;60220;53.552;10.092;2023-01-05T11:10:49;101260.81;;;9.57;75.72
72285;BME280;60220;53.552;10.092;2023-01-05T11:13:21;101263.44;;;9.30;77.33
72285;BME280;60220;53.552;10.092;2023-01-05T11:15:52;101275.69;;;9.29;75.28
72285;BME280;60220;53.552;10.092;2023-01-05T11:18:25;101272.13;;;8.92;77.61
72285;BME280;60220;53.552;10.092;2023-01-05T11:21:19;101261.63;;;8.79;76.75
72285;BME280;60220;53.552;10.092;2023-01-05T11:23:48;101263.41;;;8.93;76.62
72285;BME280;60220;53.552;10.092;2023-01-05T11:26:26;101264.22;;;8.74;76.34
72285;BME280;60220;53.552;10.092;2023-01-05T11:29:01;101264.22;;;8.73;76.17
72285;BME280;60220;53.552;10.092;2023-01-05T11:31:32;101264.31;;;9.04;75.97
72285;BME280;60220;53.552;10.092;2023-01-05T11:34:05;101272.19;;;9.24;76.15
72285;BME280;60220;53.552;10.092;2023-01-05T11:36:33;101279.16;;;9.10;76.09
72285;BME280;60220;53.552;10.092;2023-01-05T11:39:00;101283.53;;;9.29;75.33
72285;BME280;60220;53.552;10.092;2023-01-05T11:41:28;101290.44;;;8.80;76.85
72285;BME280;60220;53.552;10.092;2023-01-05T11:43:55;101289.59;;;9.12;76.23
72285;BME280;60220;53.552;10.092;2023-01-05T11:46:38;101297.50;;;9.15;75.96
72285;BME280;60220;53.552;10.092;2023-01-05T11:49:07;101298.28;;;8.80;76.05
72285;BME280;60220;53.552;10.092;2023-01-05T11:51:38;101291.25;;;8.69;77.81
72285;BME280;60220;53.552;10.092;2023-01-05T11:54:30;101299.22;;;9.22;76.65
72285;BME280;60220;53.552;10.092;2023-01-05T11:57:15;101299.25;;;9.43;73.53
72285;BME280;60220;53.552;10.092;2023-01-05T11:59:44;101306.25;;;9.50;74.45
72285;BME280;60220;53.552;10.092;2023-01-05T12:02:48;101318.47;;;9.36;74.83
72285;BME280;60220;53.552;10.092;2023-01-05T12:05:24;101319.28;;;8.95;75.56
72285;BME280;60220;53.552;10.092;2023-01-05T12:08:00;101320.19;;;9.28;74.25
72285;BME280;60220;53.552;10.092;2023-01-05T12:10:40;101320.13;;;9.02;75.88
72285;BME280;60220;53.552;10.092;2023-01-05T12:13:22;101331.53;;;9.15;75.56
72285;BME280;60220;53.552;10.092;2023-01-05T12:16:04;101328.81;;;8.80;76.62
72285;BME280;60220;53.552;10.092;2023-01-05T12:18:49;101338.50;;;9.13;76.95
72285;BME280;60220;53.552;10.092;2023-01-05T12:21:22;101342.88;;;9.11;77.09
72285;BME280;60220;53.552;10.092;2023-01-05T12:24:22;101337.66;;;9.20;75.84
72285;BME280;60220;53.552;10.092;2023-01-05T12:27:02;101343.81;;;9.55;74.58
72285;BME280;60220;53.552;10.092;2023-01-05T12:29:53;101344.53;;;8.87;75.12
72285;BME280;60220;53.552;10.092;2023-01-05T12:32:38;101349.84;;;9.05;74.87
72285;BME280;60220;53.552;10.092;2023-01-05T12:35:44;101344.53;;;8.83;76.30
72285;BME280;60220;53.552;10.092;2023-01-05T12:38:22;101358.50;;;8.83;75.99
72285;BME280;60220;53.552;10.092;2023-01-05T12:41:04;101350.69;;;8.98;75.40
72285;BME280;60220;53.552;10.092;2023-01-05T12:43:44;101353.34;;;9.14;75.67
72285;BME280;60220;53.552;10.092;2023-01-05T12:46:24;101349.03;;;9.57;74.03
72285;BME280;60220;53.552;10.092;2023-01-05T12:48:59;101355.03;;;8.93;75.18
72285;BME280;60220;53.552;10.092;2023-01-05T12:51:30;101348.94;;;9.02;75.43
72285;BME280;60220;53.552;10.092;2023-01-05T12:54:03;101360.34;;;9.18;75.10
72285;BME280;60220;53.552;10.092;2023-01-05T12:56:35;101365.63;;;9.33;74.44
72285;BME280;60220;53.552;10.092;2023-01-05T12:59:13;101377.81;;;9.16;74.84
72285;BME280;60220;53.552;10.092;2023-01-05T13:01:49;101381.25;;;8.99;74.62
72285;BME280;60220;53.552;10.092;2023-01-05T13:04:31;101390.91;;;9.16;74.27
72285;BME280;60220;53.552;10.092;2023-01-05T13:07:01;101396.06;;;8.94;74.17
72285;BME280;60220;53.552;10.092;2023-01-05T13:09:34;101409.13;;;8.88;75.96
72285;BME280;60220;53.552;10.092;2023-01-05T13:12:07;101412.69;;;9.12;74.43
72285;BME280;60220;53.552;10.092;2023-01-05T13:14:42;101410.88;;;8.89;75.01
72285;BME280;60220;53.552;10.092;2023-01-05T13:17:22;101408.25;;;8.86;73.34